Airfield :
LOGIN :

Register | Disclaimer

   EN    FR    IT 

 










Legend :    VFR   Marginal VFR   IFR   Intensive IFR   Very Intensive IFR
Visi :
Ceiling :
>= 8 km
>= 3000ft
5 to 8 km
1000 to 3000 ft
1500m to 5 km
500 to 1000 ft
800 to 1500m
200 to 500 ft
< 800m
< 200 ft
Symbols :   Thunderstorms  Fog  Heavy snow  Heavy precipitations  Wind > 20 kt
SIGMETs :     Misc.  Thunderstorms  Icing  Turbulence  Mountain Waves  Volcanic Ashes






- Airport Elevation : 37 ft
- IATA code : FRO


ENFL - Florø

CURRENT METAR :
  • 170020Z AUTO 08004KT 040V110 9999NDV BKN086/// 11/10 Q1006

EXPIRED METARs :
  • 162350Z AUTO 14005KT 9999NDV OVC080/// 12/10 Q1006
  • 162320Z AUTO 03004KT 340V080 9999NDV BKN070/// 12/10 Q1006
  • 162250Z AUTO 34008KT 9999NDV OVC070/// 12/10 Q1006
  • 162220Z AUTO 31010KT 9999NDV OVC078/// 12/10 Q1006
  • 162150Z AUTO 26010KT 9999NDV -SHRA FEW015/// SCT042/// BKN054/// 11/09 Q1007
  • 162120Z AUTO 29009KT 9999NDV -SHRA BKN060/// OVC100/// 14/11 Q1006
  • 162050Z AUTO 30007KT 9999NDV OVC064/// 14/10 Q1006
  • 162020Z AUTO 29005KT 9999NDV BKN058/// BKN074/// OVC100/// 15/10 Q1006
  • 161950Z AUTO 33005KT 9999NDV FEW098/// 15/10 Q1005

TAF TAF ENFL
Valid from the 17 at 00:00 until the 17 at 09:00 UTC


162300Z 1700/1709 09008KT 9999 FEW015 BKN050
TEMPO 1706/1709 SHRA BKN025CB



MET'MAP, your aeronautical weather chart ! - Copyright ORBIFLY December 2007 - Disclaimer

ORBIFLY MET'MAP TEAM :

Programming & Development : Alexandra Zaïnal
Original concept : Baudouin d'Aumeries
Technical & hardware support : Manuel Goepfert
Assistance : Marc-Olivier Méhu




SOURCES & CREDITS :

   NOAA